createdAt,value
2019-02-14T00:00:18.366Z,98.03
2019-02-14T00:01:18.275Z,97.63
2019-02-14T00:02:18.293Z,98.03
2019-02-14T00:03:18.255Z,98.35
2019-02-14T00:04:18.291Z,97.77
2019-02-14T00:05:18.260Z,97.83
2019-02-14T00:06:18.287Z,97.73
2019-02-14T00:07:18.222Z,98.03
2019-02-14T00:08:18.209Z,98.19
2019-02-14T00:09:18.245Z,97.83
2019-02-14T00:10:18.203Z,97.83
2019-02-14T00:11:18.191Z,97.42
2019-02-14T00:12:18.180Z,97.63
2019-02-14T00:13:18.144Z,97.42
2019-02-14T00:14:18.138Z,97.94
2019-02-14T00:15:18.148Z,96.91
2019-02-14T00:16:18.125Z,96.91
2019-02-14T00:17:18.120Z,97.01
2019-02-14T00:18:18.116Z,96.70
2019-02-14T00:19:18.147Z,97.05
2019-02-14T00:20:18.077Z,97.16
2019-02-14T00:21:18.072Z,97.52
2019-02-14T00:22:18.061Z,97.21
2019-02-14T00:23:18.058Z,97.11
2019-02-14T00:24:18.051Z,97.21
2019-02-14T00:25:18.078Z,97.63
2019-02-14T00:26:18.021Z,97.01
2019-02-14T00:27:18.120Z,97.11
2019-02-14T00:28:18.004Z,97.01
2019-02-14T00:29:17.977Z,97.01
2019-02-14T00:30:17.985Z,96.91
2019-02-14T00:31:17.967Z,97.01
2019-02-14T00:32:17.947Z,97.31
2019-02-14T00:33:17.951Z,96.80
2019-02-14T00:34:17.935Z,97.21
2019-02-14T00:35:24.881Z,97.21
2019-02-14T00:36:18.904Z,97.11
2019-02-14T00:37:17.897Z,97.31
2019-02-14T00:38:17.890Z,97.21
2019-02-14T00:39:17.894Z,97.11
2019-02-14T00:40:17.910Z,98.14
2019-02-14T00:41:17.884Z,97.52
2019-02-14T00:42:17.862Z,97.42
2019-02-14T00:43:17.861Z,97.36
2019-02-14T00:44:17.848Z,97.21
2019-02-14T00:45:17.828Z,97.11
2019-02-14T00:46:17.830Z,96.91
2019-02-14T00:47:17.861Z,97.83
2019-02-14T00:48:17.793Z,96.74
2019-02-14T00:49:17.795Z,96.95
2019-02-14T00:50:17.804Z,96.70
2019-02-14T00:51:17.790Z,96.49
2019-02-14T00:52:17.751Z,96.70
2019-02-14T00:53:17.736Z,96.49
2019-02-14T00:54:17.725Z,96.64
2019-02-14T00:55:17.719Z,96.70
2019-02-14T00:56:17.711Z,96.59
2019-02-14T00:57:17.689Z,96.80
2019-02-14T00:58:17.712Z,96.70
2019-02-14T00:59:17.671Z,96.95
2019-02-14T01:00:17.665Z,96.70
2019-02-14T01:01:17.656Z,96.70
2019-02-14T01:02:17.648Z,96.59
2019-02-14T01:03:17.626Z,96.39
2019-02-14T01:04:17.659Z,96.39
2019-02-14T01:05:17.620Z,96.39
2019-02-14T01:06:17.602Z,96.39
2019-02-14T01:07:17.581Z,96.59
2019-02-14T01:08:17.607Z,96.70
2019-02-14T01:09:17.556Z,96.59
2019-02-14T01:10:17.594Z,96.28
2019-02-14T01:11:17.562Z,95.56
2019-02-14T01:12:17.587Z,95.67
2019-02-14T01:13:17.532Z,95.61
2019-02-14T01:14:17.509Z,95.50
2019-02-14T01:15:17.504Z,95.87
2019-02-14T01:16:17.549Z,95.67
2019-02-14T01:17:17.489Z,95.56
2019-02-14T01:18:17.493Z,95.46
2019-02-14T01:19:17.467Z,95.87
2019-02-14T01:20:17.460Z,95.77
2019-02-14T01:21:17.452Z,95.92
2019-02-14T01:22:17.426Z,96.08
2019-02-14T01:23:17.442Z,96.08
2019-02-14T01:24:17.420Z,95.98
2019-02-14T01:25:17.426Z,96.23
2019-02-14T01:26:17.408Z,95.87
2019-02-14T01:27:17.393Z,95.36
2019-02-14T01:28:17.356Z,95.77
2019-02-14T01:29:17.364Z,95.87
2019-02-14T01:30:17.352Z,96.08
2019-02-14T01:31:17.334Z,95.71
2019-02-14T01:32:17.340Z,95.87
2019-02-14T01:33:17.326Z,96.08
2019-02-14T01:34:17.303Z,95.87
2019-02-14T01:35:17.313Z,95.40
2019-02-14T01:36:17.274Z,95.40
2019-02-14T01:37:17.291Z,95.50
2019-02-14T01:38:17.270Z,96.12
2019-02-14T01:39:17.264Z,95.92
2019-02-14T01:40:17.304Z,95.92
2019-02-14T01:41:17.243Z,95.50
2019-02-14T01:42:17.214Z,95.46
2019-02-14T01:43:17.226Z,95.50
2019-02-14T01:44:17.195Z,95.61
2019-02-14T01:45:17.198Z,95.30
2019-02-14T01:46:17.184Z,95.61
2019-02-14T01:47:17.165Z,95.92
2019-02-14T01:48:17.174Z,94.99
2019-02-14T01:49:17.148Z,95.09
2019-02-14T01:50:17.136Z,95.87
2019-02-14T01:51:17.134Z,95.71
2019-02-14T01:52:17.121Z,95.87
2019-02-14T01:53:17.124Z,95.81
2019-02-14T01:54:17.088Z,95.20
2019-02-14T01:55:17.073Z,95.20
2019-02-14T01:56:17.073Z,94.99
2019-02-14T01:57:17.053Z,94.89
2019-02-14T01:58:17.050Z,95.20
2019-02-14T01:59:17.038Z,95.36
2019-02-14T02:00:17.035Z,95.36
2019-02-14T02:01:17.022Z,94.89
2019-02-14T02:02:17.021Z,94.78
2019-02-14T02:03:17.010Z,94.27
2019-02-14T02:04:16.988Z,94.37
2019-02-14T02:05:16.967Z,94.27
2019-02-14T02:06:26.091Z,94.47
2019-02-14T02:07:16.946Z,94.57
2019-02-14T02:08:26.125Z,94.23
2019-02-14T02:09:16.929Z,94.47
2019-02-14T02:10:26.661Z,94.78
2019-02-14T02:11:26.185Z,94.57
2019-02-14T02:12:16.910Z,94.68
2019-02-14T02:13:26.231Z,94.68
2019-02-14T02:14:16.921Z,94.17
2019-02-14T02:15:26.247Z,94.74
2019-02-14T02:16:27.293Z,93.96
2019-02-14T02:17:26.334Z,94.78
2019-02-14T02:18:25.865Z,94.27
2019-02-14T02:19:16.817Z,94.02
2019-02-14T02:20:33.045Z,93.85
2019-02-14T02:21:17.796Z,94.43
2019-02-14T02:22:16.806Z,94.47
2019-02-14T02:23:16.783Z,94.57
2019-02-14T02:24:16.761Z,94.57
2019-02-14T02:25:16.768Z,93.96
2019-02-14T02:26:16.825Z,94.27
2019-02-14T02:27:16.743Z,94.74
2019-02-14T02:28:16.736Z,94.27
2019-02-14T02:29:16.714Z,94.17
2019-02-14T02:30:16.703Z,94.06
2019-02-14T02:31:16.701Z,93.96
2019-02-14T02:32:16.705Z,93.81
2019-02-14T02:33:16.679Z,93.85
2019-02-14T02:34:16.658Z,94.53
2019-02-14T02:35:16.659Z,94.68
2019-02-14T02:36:16.644Z,94.17
2019-02-14T02:37:16.637Z,94.23
2019-02-14T02:38:16.633Z,94.12
2019-02-14T02:39:16.617Z,93.91
2019-02-14T02:40:16.610Z,93.50
2019-02-14T02:41:16.608Z,93.81
2019-02-14T02:42:16.584Z,93.30
2019-02-14T02:43:16.568Z,93.19
2019-02-14T02:44:16.596Z,93.19
2019-02-14T02:45:16.550Z,93.30
2019-02-14T02:46:16.535Z,93.30
2019-02-14T02:47:16.567Z,93.19
2019-02-14T02:48:16.505Z,93.30
2019-02-14T02:49:16.507Z,93.19
2019-02-14T02:50:16.493Z,93.60
2019-02-14T02:51:16.498Z,93.85
2019-02-14T02:52:16.477Z,93.09
2019-02-14T02:53:16.471Z,93.09
2019-02-14T02:54:16.459Z,93.09
2019-02-14T02:55:16.439Z,93.19
2019-02-14T02:56:16.426Z,93.40
2019-02-14T02:57:16.423Z,92.68
2019-02-14T02:58:16.436Z,93.44
2019-02-14T02:59:16.418Z,93.19
2019-02-14T03:00:16.385Z,92.88
2019-02-14T03:01:16.373Z,92.99
2019-02-14T03:02:16.366Z,93.24
2019-02-14T03:03:16.368Z,93.13
2019-02-14T03:04:16.356Z,93.19
2019-02-14T03:05:16.330Z,93.19
2019-02-14T03:06:16.345Z,93.30
2019-02-14T03:07:16.308Z,93.24
2019-02-14T03:08:16.318Z,93.19
2019-02-14T03:09:16.315Z,93.30
2019-02-14T03:10:16.281Z,93.60
2019-02-14T03:11:16.288Z,92.93
2019-02-14T03:12:16.266Z,93.13
2019-02-14T03:13:16.251Z,93.24
2019-02-14T03:14:16.260Z,93.40
2019-02-14T03:15:16.229Z,93.24
2019-02-14T03:16:16.212Z,93.44
2019-02-14T03:17:16.220Z,93.13
2019-02-14T03:18:16.203Z,93.44
2019-02-14T03:19:16.293Z,93.13
2019-02-14T03:20:16.211Z,93.13
2019-02-14T03:21:16.174Z,93.13
2019-02-14T03:22:16.203Z,93.24
2019-02-14T03:23:16.139Z,93.24
2019-02-14T03:24:16.159Z,93.54
2019-02-14T03:25:16.123Z,93.13
2019-02-14T03:26:16.105Z,92.93
2019-02-14T03:27:16.113Z,93.13
2019-02-14T03:28:16.082Z,93.54
2019-02-14T03:29:16.079Z,93.13
2019-02-14T03:30:16.170Z,93.75
2019-02-14T03:31:16.066Z,92.93
2019-02-14T03:32:16.069Z,93.24
2019-02-14T03:33:16.063Z,92.93
2019-02-14T03:34:16.037Z,93.34
2019-02-14T03:35:16.031Z,93.34
2019-02-14T03:36:19.194Z,93.34
2019-02-14T03:37:16.005Z,93.24
2019-02-14T03:38:16.039Z,93.24
2019-02-14T03:39:15.990Z,93.24
2019-02-14T03:40:15.959Z,93.24
2019-02-14T03:41:15.961Z,92.82
2019-02-14T03:42:15.944Z,93.65
2019-02-14T03:43:15.947Z,93.44
2019-02-14T03:44:15.940Z,93.44
2019-02-14T03:45:15.925Z,93.34
2019-02-14T03:46:15.911Z,93.13
2019-02-14T03:47:15.893Z,93.44
2019-02-14T03:48:15.882Z,93.07
2019-02-14T03:49:15.918Z,93.18
2019-02-14T03:50:15.863Z,93.28
2019-02-14T03:51:15.848Z,93.75
2019-02-14T03:52:16.356Z,93.38
2019-02-14T03:53:15.830Z,93.13
2019-02-14T03:54:15.811Z,93.24
2019-02-14T03:55:15.824Z,92.72
2019-02-14T03:56:15.804Z,93.18
2019-02-14T03:57:15.788Z,93.34
2019-02-14T03:58:15.788Z,93.13
2019-02-14T03:59:15.770Z,93.38
2019-02-14T04:00:15.786Z,93.49
2019-02-14T04:01:15.794Z,93.38
2019-02-14T04:02:15.805Z,93.79
2019-02-14T04:03:15.756Z,93.38
2019-02-14T04:04:15.764Z,93.59
2019-02-14T04:05:15.713Z,93.79
2019-02-14T04:06:15.716Z,93.90
2019-02-14T04:07:15.678Z,93.79
2019-02-14T04:08:15.693Z,93.90
2019-02-14T04:09:15.665Z,93.69
2019-02-14T04:10:15.721Z,93.90
2019-02-14T04:11:15.685Z,94.31
2019-02-14T04:12:15.634Z,94.21
2019-02-14T04:13:15.642Z,93.90
2019-02-14T04:14:15.623Z,93.79
2019-02-14T04:15:15.604Z,93.79
2019-02-14T04:16:15.594Z,93.90
2019-02-14T04:17:15.598Z,93.59
2019-02-14T04:18:15.575Z,93.69
2019-02-14T04:19:15.577Z,94.31
2019-02-14T04:20:15.553Z,93.90
2019-02-14T04:21:15.546Z,93.90
2019-02-14T04:22:15.529Z,93.79
2019-02-14T04:23:15.530Z,93.79
2019-02-14T04:24:15.558Z,93.90
2019-02-14T04:25:15.509Z,93.90
2019-02-14T04:26:15.487Z,93.69
2019-02-14T04:27:15.495Z,93.79
2019-02-14T04:28:15.513Z,93.79
2019-02-14T04:29:16.362Z,93.90
2019-02-14T04:30:15.529Z,93.59
2019-02-14T04:31:15.440Z,93.18
2019-02-14T04:32:15.432Z,93.69
2019-02-14T04:33:15.433Z,93.28
2019-02-14T04:34:15.423Z,92.86
2019-02-14T04:35:15.405Z,92.97
2019-02-14T04:36:15.435Z,93.49
2019-02-14T04:37:15.422Z,93.28
2019-02-14T04:38:15.369Z,92.76
2019-02-14T04:39:15.394Z,93.28
2019-02-14T04:40:15.364Z,93.07
2019-02-14T04:41:15.345Z,93.28
2019-02-14T04:42:15.315Z,93.07
2019-02-14T04:43:15.360Z,93.18
2019-02-14T04:44:15.324Z,93.28
2019-02-14T04:45:15.319Z,93.18
2019-02-14T04:46:15.290Z,93.38
2019-02-14T04:47:15.279Z,93.28
2019-02-14T04:48:15.260Z,93.07
2019-02-14T04:49:24.577Z,93.28
2019-02-14T04:50:15.256Z,93.18
2019-02-14T04:51:15.227Z,92.86
2019-02-14T04:52:15.227Z,92.51
2019-02-14T04:53:15.208Z,92.86
2019-02-14T04:54:15.311Z,92.93
2019-02-14T04:55:15.233Z,92.72
2019-02-14T04:56:15.226Z,92.10
2019-02-14T04:57:15.217Z,92.46
2019-02-14T04:58:15.177Z,91.63
2019-02-14T04:59:15.187Z,91.89
2019-02-14T05:00:15.212Z,92.14
2019-02-14T05:01:15.204Z,92.10
2019-02-14T05:02:15.210Z,91.83
2019-02-14T05:03:15.128Z,91.73
2019-02-14T05:04:15.109Z,91.58
2019-02-14T05:05:15.101Z,91.73
2019-02-14T05:06:15.078Z,91.73
2019-02-14T05:07:15.115Z,91.73
2019-02-14T05:08:15.068Z,91.38
2019-02-14T05:09:20.195Z,91.52
2019-02-14T05:10:15.076Z,91.22
2019-02-14T05:11:15.090Z,90.86
2019-02-14T05:12:15.503Z,91.79
2019-02-14T05:13:15.110Z,91.22
2019-02-14T05:14:15.026Z,91.07
2019-02-14T05:15:14.998Z,90.59
2019-02-14T05:16:15.907Z,91.07
2019-02-14T05:17:14.984Z,91.11
2019-02-14T05:18:14.991Z,90.55
2019-02-14T05:19:15.022Z,91.11
2019-02-14T05:20:15.018Z,90.97
2019-02-14T05:21:14.924Z,90.97
2019-02-14T05:22:14.921Z,91.17
2019-02-14T05:23:14.932Z,90.76
2019-02-14T05:24:14.896Z,90.91
2019-02-14T05:25:14.876Z,90.66
2019-02-14T05:26:14.885Z,90.76
2019-02-14T05:27:14.859Z,90.97
2019-02-14T05:28:14.895Z,90.66
2019-02-14T05:29:14.895Z,90.55
2019-02-14T05:30:14.844Z,90.76
2019-02-14T05:31:14.819Z,90.04
2019-02-14T05:32:14.829Z,89.11
2019-02-14T05:33:14.805Z,89.32
2019-02-14T05:34:14.791Z,89.52
2019-02-14T05:35:14.818Z,89.73
2019-02-14T05:36:14.775Z,89.62
2019-02-14T05:37:14.758Z,89.52
2019-02-14T05:38:14.776Z,89.22
2019-02-14T05:39:14.756Z,88.90
2019-02-14T05:40:14.776Z,88.90
2019-02-14T05:41:14.734Z,88.90
2019-02-14T05:42:14.721Z,88.90
2019-02-14T05:43:14.737Z,88.70
2019-02-14T05:44:14.721Z,89.22
2019-02-14T05:45:14.699Z,89.42
2019-02-14T05:46:14.729Z,89.42
2019-02-14T05:47:14.674Z,89.73
2019-02-14T05:48:14.631Z,89.52
2019-02-14T05:49:14.645Z,89.42
2019-02-14T05:50:14.646Z,89.62
2019-02-14T05:51:14.624Z,89.22
2019-02-14T05:52:14.633Z,88.80
2019-02-14T05:53:14.583Z,89.01
2019-02-14T05:54:14.583Z,88.90
2019-02-14T05:55:14.589Z,88.90
2019-02-14T05:56:14.746Z,88.70
2019-02-14T05:57:14.616Z,89.32
2019-02-14T05:58:14.538Z,88.90
2019-02-14T05:59:14.553Z,88.70
2019-02-14T06:00:14.563Z,88.90
2019-02-14T06:01:14.584Z,88.90
2019-02-14T06:02:14.612Z,89.01
2019-02-14T06:03:14.494Z,89.01
2019-02-14T06:04:14.525Z,89.11
2019-02-14T06:05:14.529Z,88.80
2019-02-14T06:06:14.533Z,89.11
2019-02-14T06:07:14.545Z,88.90
2019-02-14T06:08:14.469Z,89.22
2019-02-14T06:09:14.472Z,88.80
2019-02-14T06:10:14.428Z,89.22
2019-02-14T06:11:14.497Z,89.11
2019-02-14T06:12:14.480Z,88.90
2019-02-14T06:13:14.565Z,88.70
2019-02-14T06:14:14.408Z,89.42
2019-02-14T06:15:14.539Z,89.22
2019-02-14T06:16:14.345Z,89.01
2019-02-14T06:17:14.369Z,89.22
2019-02-14T06:18:14.470Z,89.01
2019-02-14T06:19:14.469Z,89.42
2019-02-14T06:20:14.402Z,89.62
2019-02-14T06:21:14.383Z,89.52
2019-02-14T06:22:14.283Z,89.42
2019-02-14T06:23:14.432Z,89.11
2019-02-14T06:24:14.284Z,88.80
2019-02-14T06:25:14.382Z,88.90
2019-02-14T06:26:14.912Z,88.59
2019-02-14T06:27:14.302Z,88.80
2019-02-14T06:28:14.301Z,88.59
2019-02-14T06:29:14.294Z,89.32
2019-02-14T06:30:14.279Z,89.01
2019-02-14T06:31:14.232Z,89.22
2019-02-14T06:32:15.095Z,88.90
2019-02-14T06:33:14.306Z,89.01
2019-02-14T06:34:14.240Z,88.70
2019-02-14T06:35:14.193Z,89.11
2019-02-14T06:36:15.061Z,88.90
2019-02-14T06:37:14.195Z,89.11
2019-02-14T06:38:14.148Z,88.70
2019-02-14T06:39:14.170Z,89.11
2019-02-14T06:40:14.165Z,88.80
2019-02-14T06:41:14.915Z,88.56
2019-02-14T06:42:14.172Z,88.45
2019-02-14T06:43:14.265Z,88.29
2019-02-14T06:44:14.159Z,88.49
2019-02-14T06:45:14.150Z,88.29
2019-02-14T06:46:14.076Z,88.59
2019-02-14T06:47:14.037Z,88.59
2019-02-14T06:48:14.147Z,88.59
2019-02-14T06:49:14.081Z,87.77
2019-02-14T06:50:14.081Z,87.77
2019-02-14T06:51:14.043Z,87.15
2019-02-14T06:52:13.985Z,87.15
2019-02-14T06:53:13.970Z,87.42
2019-02-14T06:54:14.068Z,86.94
2019-02-14T06:55:13.967Z,86.84
2019-02-14T06:56:13.985Z,86.84
2019-02-14T06:57:13.973Z,87.56
2019-02-14T06:58:13.928Z,87.66
2019-02-14T06:59:14.027Z,87.98
2019-02-14T07:00:14.002Z,87.98
2019-02-14T07:01:13.881Z,88.08
2019-02-14T07:02:13.890Z,87.56
2019-02-14T07:03:13.952Z,87.87
2019-02-14T07:04:15.967Z,87.87
2019-02-14T07:05:13.840Z,87.83
2019-02-14T07:06:13.858Z,87.83
2019-02-14T07:07:18.695Z,87.15
2019-02-14T07:08:14.801Z,87.26
2019-02-14T07:09:13.842Z,87.32
2019-02-14T07:10:13.851Z,87.42
2019-02-14T07:11:13.786Z,87.11
2019-02-14T07:12:13.874Z,87.11
2019-02-14T07:13:14.168Z,87.01
2019-02-14T07:14:14.430Z,86.39
2019-02-14T07:15:13.876Z,86.39
2019-02-14T07:16:13.730Z,86.18
2019-02-14T07:17:13.889Z,86.80
2019-02-14T07:18:13.694Z,86.70
2019-02-14T07:19:13.687Z,86.18
2019-02-14T07:20:13.711Z,85.77
2019-02-14T07:21:13.650Z,86.18
2019-02-14T07:22:13.676Z,86.18
2019-02-14T07:23:13.658Z,85.87
2019-02-14T07:24:13.677Z,85.87
2019-02-14T07:25:13.638Z,85.87
2019-02-14T07:26:13.987Z,85.97
2019-02-14T07:27:13.897Z,86.04
2019-02-14T07:28:13.684Z,86.70
2019-02-14T07:29:13.742Z,86.04
2019-02-14T07:30:13.596Z,85.83
2019-02-14T07:31:13.675Z,85.63
2019-02-14T07:32:13.553Z,84.91
2019-02-14T07:33:13.595Z,84.91
2019-02-14T07:34:13.539Z,85.11
2019-02-14T07:35:13.524Z,85.63
2019-02-14T07:36:13.535Z,85.63
2019-02-14T07:37:13.559Z,85.31
2019-02-14T07:38:13.518Z,85.42
2019-02-14T07:39:13.523Z,85.31
2019-02-14T07:40:13.480Z,84.80
2019-02-14T07:41:13.518Z,85.11
2019-02-14T07:42:13.520Z,84.80
2019-02-14T07:43:13.923Z,84.56
2019-02-14T07:44:13.401Z,84.97
2019-02-14T07:45:13.948Z,85.01
2019-02-14T07:46:13.464Z,84.66
2019-02-14T07:47:13.405Z,84.97
2019-02-14T07:48:13.397Z,84.91
2019-02-14T07:49:13.417Z,84.87
2019-02-14T07:50:13.412Z,85.07
2019-02-14T07:51:13.415Z,85.28
2019-02-14T07:52:13.411Z,84.87
2019-02-14T07:53:13.418Z,84.56
2019-02-14T07:54:13.354Z,83.94
2019-02-14T07:55:13.418Z,84.56
2019-02-14T07:56:13.359Z,84.35
2019-02-14T07:57:13.423Z,83.63
2019-02-14T07:58:13.320Z,83.49
2019-02-14T07:59:13.312Z,84.11
2019-02-14T08:00:14.614Z,83.94
2019-02-14T08:01:13.255Z,84.25
2019-02-14T08:02:13.292Z,83.18
2019-02-14T08:03:13.232Z,83.49
2019-02-14T08:04:13.258Z,83.63
2019-02-14T08:05:13.398Z,84.05
2019-02-14T08:06:13.620Z,84.05
2019-02-14T08:07:13.269Z,83.94
2019-02-14T08:08:13.233Z,84.00
2019-02-14T08:09:13.230Z,84.11
2019-02-14T08:10:14.937Z,82.97
2019-02-14T08:11:13.257Z,82.97
2019-02-14T08:12:13.194Z,83.07
2019-02-14T08:13:13.154Z,83.49
2019-02-14T08:14:13.931Z,82.87
2019-02-14T08:15:13.134Z,83.18
2019-02-14T08:16:15.243Z,83.18
2019-02-14T08:17:14.034Z,83.07
2019-02-14T08:18:13.271Z,83.39
2019-02-14T08:19:13.933Z,83.49
2019-02-14T08:20:13.217Z,82.97
2019-02-14T08:21:13.931Z,82.11
2019-02-14T08:22:14.788Z,82.05
2019-02-14T08:23:13.561Z,81.91
2019-02-14T08:24:13.167Z,81.81
2019-02-14T08:25:13.991Z,82.05
2019-02-14T08:26:13.931Z,82.35
2019-02-14T08:27:13.431Z,82.01
2019-02-14T08:28:13.106Z,82.11
2019-02-14T08:29:13.104Z,81.81
2019-02-14T08:30:13.045Z,82.32
2019-02-14T08:31:13.303Z,81.81
2019-02-14T08:32:12.948Z,81.81
2019-02-14T08:33:12.992Z,82.11
2019-02-14T08:34:12.940Z,82.11
2019-02-14T08:35:12.974Z,82.11
2019-02-14T08:36:12.917Z,82.01
2019-02-14T08:37:12.931Z,81.70
2019-02-14T08:38:13.596Z,81.09
2019-02-14T08:39:12.969Z,80.98
2019-02-14T08:40:13.560Z,80.67
2019-02-14T08:41:12.853Z,81.19
2019-02-14T08:42:13.197Z,80.67
2019-02-14T08:43:13.083Z,80.77
2019-02-14T08:44:12.980Z,80.53
2019-02-14T08:45:12.796Z,80.84
2019-02-14T08:46:12.842Z,81.05
2019-02-14T08:47:12.792Z,80.94
2019-02-14T08:48:12.880Z,81.15
2019-02-14T08:49:12.835Z,80.53
2019-02-14T08:50:12.773Z,80.74
2019-02-14T08:51:12.906Z,79.81
2019-02-14T08:52:13.324Z,79.88
2019-02-14T08:53:12.742Z,79.50
2019-02-14T08:54:12.812Z,80.12
2019-02-14T08:55:12.752Z,79.67
2019-02-14T08:56:12.791Z,80.08
2019-02-14T08:57:12.747Z,79.77
2019-02-14T08:58:12.725Z,79.98
2019-02-14T08:59:12.647Z,80.19
2019-02-14T09:00:12.682Z,79.57
2019-02-14T09:01:12.681Z,78.85
2019-02-14T09:02:12.724Z,79.02
2019-02-14T09:03:12.586Z,79.02
2019-02-14T09:04:12.613Z,79.12
2019-02-14T09:05:12.697Z,78.71
2019-02-14T09:06:12.677Z,79.02
2019-02-14T09:07:12.534Z,78.57
2019-02-14T09:08:12.623Z,78.27
2019-02-14T09:09:12.543Z,77.85
2019-02-14T09:10:12.601Z,77.65
2019-02-14T09:11:12.551Z,78.06
2019-02-14T09:12:12.563Z,77.55
2019-02-14T09:13:17.324Z,77.65
2019-02-14T09:14:13.574Z,78.57
2019-02-14T09:15:13.441Z,78.27
2019-02-14T09:16:12.642Z,77.03
2019-02-14T09:17:12.810Z,76.72
2019-02-14T09:18:13.442Z,76.72
2019-02-14T09:19:12.684Z,76.21
2019-02-14T09:20:12.837Z,76.00
2019-02-14T09:21:12.402Z,76.58
2019-02-14T09:22:14.039Z,76.48
2019-02-14T09:23:14.591Z,76.48
2019-02-14T09:24:13.100Z,76.58
2019-02-14T09:25:12.944Z,76.68
2019-02-14T09:26:14.977Z,76.07
2019-02-14T09:27:12.440Z,75.42
2019-02-14T09:28:12.592Z,75.21
2019-02-14T09:29:14.309Z,75.11
2019-02-14T09:30:12.796Z,75.21
2019-02-14T09:31:13.999Z,75.38
2019-02-14T09:32:12.439Z,75.28
2019-02-14T09:33:12.564Z,75.08
2019-02-14T09:34:12.947Z,74.91
2019-02-14T09:35:12.947Z,74.57
2019-02-14T09:36:12.948Z,74.26
2019-02-14T09:37:12.286Z,74.15
2019-02-14T09:38:12.274Z,73.33
2019-02-14T09:39:12.290Z,74.36
2019-02-14T09:40:12.300Z,72.92
2019-02-14T09:41:12.289Z,73.23
2019-02-14T09:42:12.218Z,74.05
2019-02-14T09:43:12.240Z,73.54
2019-02-14T09:44:12.227Z,73.64
2019-02-14T09:45:12.184Z,73.64
2019-02-14T09:46:12.157Z,73.33
2019-02-14T09:47:12.120Z,73.33
2019-02-14T09:48:12.276Z,74.36
2019-02-14T09:49:12.122Z,73.74
2019-02-14T09:50:12.145Z,74.15
2019-02-14T09:51:12.139Z,74.53
2019-02-14T09:52:12.158Z,74.22
2019-02-14T09:53:12.054Z,73.02
2019-02-14T09:54:12.074Z,72.31
2019-02-14T09:55:12.099Z,72.61
2019-02-14T09:56:12.035Z,73.02
2019-02-14T09:57:12.957Z,73.13
2019-02-14T09:58:12.016Z,72.10
2019-02-14T09:59:11.986Z,72.31
2019-02-14T10:00:12.042Z,72.41
2019-02-14T10:01:12.034Z,72.82
2019-02-14T10:02:11.980Z,72.82
2019-02-14T10:03:11.952Z,72.99
2019-02-14T10:04:12.003Z,72.89
2019-02-14T10:05:11.966Z,72.89
2019-02-14T10:06:11.995Z,71.25
2019-02-14T10:07:12.037Z,71.90
2019-02-14T10:08:13.119Z,71.90
2019-02-14T10:09:11.910Z,71.97
2019-02-14T10:10:11.900Z,72.31
2019-02-14T10:11:11.863Z,71.86
2019-02-14T10:12:11.918Z,72.78
2019-02-14T10:13:11.883Z,71.80
2019-02-14T10:14:11.849Z,71.86
2019-02-14T10:15:12.457Z,71.80
2019-02-14T10:16:11.890Z,72.61
2019-02-14T10:17:11.840Z,72.99
2019-02-14T10:18:11.805Z,72.92
2019-02-14T10:19:11.872Z,72.48
2019-02-14T10:20:11.876Z,71.66
2019-02-14T10:21:11.868Z,71.25
2019-02-14T10:22:11.795Z,71.08
2019-02-14T10:23:11.751Z,71.35
2019-02-14T10:24:11.819Z,71.04
2019-02-14T10:25:12.511Z,71.28
2019-02-14T10:26:12.518Z,71.18
2019-02-14T10:27:11.807Z,71.56
2019-02-14T10:28:11.930Z,70.50
2019-02-14T10:29:11.717Z,69.37
2019-02-14T10:30:11.788Z,69.47
2019-02-14T10:31:11.968Z,69.78
2019-02-14T10:32:13.124Z,69.37
2019-02-14T10:33:12.048Z,69.71
2019-02-14T10:34:11.991Z,70.12
2019-02-14T10:35:11.819Z,69.51
2019-02-14T10:36:13.461Z,68.96
2019-02-14T10:37:12.959Z,69.17
2019-02-14T10:38:11.821Z,68.45
2019-02-14T10:39:12.959Z,68.89
2019-02-14T10:40:11.716Z,69.20
2019-02-14T10:41:12.663Z,69.33
2019-02-14T10:42:11.574Z,69.43
2019-02-14T10:43:11.603Z,69.74
2019-02-14T10:44:11.538Z,69.64
2019-02-14T10:45:11.609Z,69.33
2019-02-14T10:46:11.572Z,69.40
2019-02-14T10:47:11.484Z,69.33
2019-02-14T10:48:11.486Z,69.64
2019-02-14T10:49:20.062Z,69.71
2019-02-14T10:50:11.484Z,68.38
2019-02-14T10:51:11.441Z,68.07
2019-02-14T10:52:11.478Z,68.38
2019-02-14T10:53:12.285Z,68.38
2019-02-14T10:54:11.434Z,68.86
2019-02-14T10:55:11.417Z,68.04
2019-02-14T10:56:11.440Z,66.81
2019-02-14T10:57:11.992Z,67.14
2019-02-14T10:58:11.362Z,68.17
2019-02-14T10:59:11.381Z,68.30
2019-02-14T11:00:11.549Z,67.79
2019-02-14T11:01:11.430Z,68.48
2019-02-14T11:02:11.346Z,67.79
2019-02-14T11:03:11.366Z,67.35
2019-02-14T11:04:11.329Z,67.25
2019-02-14T11:05:11.302Z,66.33
2019-02-14T11:06:11.322Z,66.71
2019-02-14T11:07:11.281Z,66.09
2019-02-14T11:08:11.256Z,64.59
2019-02-14T11:09:11.286Z,64.48
2019-02-14T11:10:11.740Z,65.41
2019-02-14T11:11:12.033Z,65.30
2019-02-14T11:12:11.993Z,65.37
2019-02-14T11:13:11.540Z,65.37
2019-02-14T11:14:11.234Z,64.53
2019-02-14T11:15:11.507Z,64.53
2019-02-14T11:16:11.992Z,64.32
2019-02-14T11:17:11.995Z,65.24
2019-02-14T11:18:11.205Z,64.86
2019-02-14T11:19:11.992Z,65.37
2019-02-14T11:20:11.298Z,64.79
2019-02-14T11:21:11.125Z,65.33
2019-02-14T11:22:11.115Z,66.25
2019-02-14T11:23:11.216Z,66.67
2019-02-14T11:24:11.118Z,67.38
2019-02-14T11:25:11.111Z,66.77
2019-02-14T11:26:11.275Z,67.18
2019-02-14T11:27:11.074Z,66.87
2019-02-14T11:28:11.124Z,66.97
2019-02-14T11:29:11.091Z,67.28
2019-02-14T11:30:11.103Z,66.84
2019-02-14T11:31:11.047Z,66.84
2019-02-14T11:32:11.023Z,66.84
2019-02-14T11:33:11.022Z,66.02
2019-02-14T11:34:11.012Z,66.40
2019-02-14T11:35:10.987Z,66.09
2019-02-14T11:36:11.029Z,65.68
2019-02-14T11:37:10.977Z,66.27
2019-02-14T11:38:10.966Z,64.94
2019-02-14T11:39:10.993Z,64.94
2019-02-14T11:40:10.954Z,64.73
2019-02-14T11:41:11.043Z,64.94
2019-02-14T11:42:10.945Z,64.94
2019-02-14T11:43:10.927Z,65.14
2019-02-14T11:44:10.978Z,65.89
2019-02-14T11:45:10.882Z,65.04
2019-02-14T11:46:10.957Z,64.32
2019-02-14T11:47:10.875Z,64.22
2019-02-14T11:48:10.854Z,64.25
2019-02-14T11:49:10.879Z,65.99
2019-02-14T11:50:10.833Z,65.37
2019-02-14T11:51:10.892Z,65.78
2019-02-14T11:52:10.801Z,65.75
2019-02-14T11:53:14.178Z,65.14
2019-02-14T11:54:10.801Z,65.34
2019-02-14T11:55:10.810Z,65.42
2019-02-14T11:56:10.762Z,63.78
2019-02-14T11:57:10.757Z,64.01
2019-02-14T11:58:10.778Z,64.12
2019-02-14T11:59:10.756Z,63.91
2019-02-14T12:00:10.716Z,64.50
2019-02-14T12:01:10.753Z,64.53
2019-02-14T12:02:10.719Z,64.01
2019-02-14T12:03:10.690Z,64.01
2019-02-14T12:04:10.696Z,64.01
2019-02-14T12:05:10.810Z,64.22
2019-02-14T12:06:10.684Z,64.01
2019-02-14T12:07:10.689Z,64.18
2019-02-14T12:08:10.628Z,64.09
2019-02-14T12:09:10.621Z,63.81
2019-02-14T12:10:13.610Z,63.50
2019-02-14T12:11:10.641Z,63.68
2019-02-14T12:12:10.590Z,63.81
2019-02-14T12:13:10.642Z,63.20
2019-02-14T12:14:10.602Z,63.40
2019-02-14T12:15:10.598Z,63.37
2019-02-14T12:16:10.572Z,63.68
2019-02-14T12:17:10.637Z,63.37
2019-02-14T12:18:10.581Z,63.68
2019-02-14T12:19:11.504Z,63.68
2019-02-14T12:20:12.588Z,63.68
2019-02-14T12:21:10.607Z,63.57
2019-02-14T12:22:10.489Z,63.78
2019-02-14T12:23:10.483Z,63.37
2019-02-14T12:24:10.501Z,63.68
2019-02-14T12:25:10.467Z,63.57
2019-02-14T12:26:10.538Z,63.47
2019-02-14T12:27:10.476Z,63.68
2019-02-14T12:28:10.444Z,64.29
2019-02-14T12:29:10.415Z,63.88
2019-02-14T12:30:10.437Z,64.42
2019-02-14T12:31:10.548Z,64.09
2019-02-14T12:32:10.493Z,64.39
2019-02-14T12:33:20.634Z,63.78
2019-02-14T12:34:10.389Z,63.88
2019-02-14T12:35:10.333Z,64.39
2019-02-14T12:36:10.320Z,63.78
2019-02-14T12:37:18.032Z,64.29
2019-02-14T12:39:28.289Z,62.85
2019-02-14T12:40:28.040Z,63.37
2019-02-14T12:41:37.461Z,63.47
2019-02-14T12:42:36.528Z,62.73
2019-02-14T12:43:37.046Z,63.17
2019-02-14T12:45:46.354Z,63.65
2019-02-14T12:48:03.750Z,63.65
2019-02-14T12:50:33.482Z,63.65
2019-02-14T12:51:33.425Z,62.83
2019-02-14T12:52:33.438Z,62.85
2019-02-14T12:53:33.456Z,62.83
2019-02-14T12:54:33.453Z,62.73
2019-02-14T12:55:33.399Z,62.83
2019-02-14T12:56:33.408Z,62.21
2019-02-14T12:57:33.377Z,62.01